Time;durP1;ratioP1;P1;durP2;ratioP2;P2;SDS_P1;SDS_P2;PMS_P1;PMS_P2;Temp;Humidity;BMP_temperature;BMP_pressure;BME280_temperature;BME280_humidity;BME280_pressure;Samples;Min_cycle;Max_cycle;Signal;HPM_P1;HPM_P2
2021/03/29 00:00:55;;;;;;;9.80;3.20;;;10.60;89.50;;;;;;5017479;28;20904;-82
2021/03/29 00:03:21;;;;;;;10.20;3.40;;;10.60;89.80;;;;;;5019088;28;20184;-82
2021/03/29 00:05:47;;;;;;;7.67;3.67;;;10.50;90.20;;;;;;5031401;28;20204;-82
2021/03/29 00:08:19;;;;;;;8.57;3.67;;;10.50;90.20;;;;;;5031101;28;20427;-83
2021/03/29 00:10:47;;;;;;;9.07;2.90;;;10.50;90.20;;;;;;5031244;28;20322;-83
2021/03/29 00:13:14;;;;;;;5.53;3.23;;;10.40;90.50;;;;;;5031758;28;20431;-82
2021/03/29 00:15:43;;;;;;;5.90;3.20;;;10.40;90.60;;;;;;5035594;28;20444;-82
2021/03/29 00:18:11;;;;;;;13.97;3.70;;;10.40;90.70;;;;;;5033699;28;20423;-82
2021/03/29 00:20:46;;;;;;;6.10;3.23;;;10.30;91.10;;;;;;5027853;28;20416;-83
2021/03/29 00:23:12;;;;;;;8.90;3.30;;;10.30;91.10;;;;;;5031182;28;20411;-82
2021/03/29 00:25:37;;;;;;;6.70;3.70;;;10.30;91.20;;;;;;5031129;28;20478;-82
2021/03/29 00:28:04;;;;;;;7.23;3.13;;;10.30;91.10;;;;;;5026645;28;20284;-82
2021/03/29 00:30:33;;;;;;;6.27;3.27;;;10.30;91.00;;;;;;5022874;28;20215;-81
2021/03/29 00:33:00;;;;;;;8.13;3.47;;;10.30;91.20;;;;;;4994255;28;20425;-82
2021/03/29 00:35:27;;;;;;;5.33;3.30;;;10.30;91.30;;;;;;5018559;28;20441;-82
2021/03/29 00:37:58;;;;;;;7.10;3.20;;;10.30;91.20;;;;;;5002735;28;20413;-82
2021/03/29 00:40:26;;;;;;;6.70;3.50;;;10.30;91.10;;;;;;5019046;28;20432;-82
2021/03/29 00:42:58;;;;;;;5.93;3.60;;;10.30;91.20;;;;;;5018711;28;20487;-82
2021/03/29 00:45:24;;;;;;;8.33;3.43;;;10.30;91.40;;;;;;5016728;28;21064;-82
2021/03/29 00:47:51;;;;;;;5.60;2.90;;;10.20;91.50;;;;;;5017180;28;20428;-82
2021/03/29 00:50:42;;;;;;;9.00;3.57;;;10.20;91.70;;;;;;5018021;28;20463;-82
2021/03/29 00:53:09;;;;;;;6.10;3.90;;;10.20;91.70;;;;;;5017871;28;20431;-82
2021/03/29 00:55:35;;;;;;;8.53;3.27;;;10.10;92.20;;;;;;5017841;28;20487;-82
2021/03/29 00:58:01;;;;;;;7.10;3.10;;;10.10;92.10;;;;;;5016707;28;20926;-82
2021/03/29 01:00:34;;;;;;;7.33;3.83;;;10.10;92.10;;;;;;5016593;28;20281;-82
2021/03/29 01:03:01;;;;;;;7.37;3.30;;;10.10;92.00;;;;;;5016203;28;20424;-82
2021/03/29 01:05:27;;;;;;;5.53;3.10;;;10.10;92.20;;;;;;5015771;28;20448;-82
2021/03/29 01:07:53;;;;;;;7.13;3.57;;;10.10;92.40;;;;;;5000228;28;20460;-82
2021/03/29 01:10:21;;;;;;;6.23;3.47;;;10.10;92.60;;;;;;5014216;28;20465;-82
2021/03/29 01:12:50;;;;;;;5.40;3.27;;;10.20;92.70;;;;;;5014622;28;20488;-82
2021/03/29 01:15:19;;;;;;;9.20;3.17;;;10.10;93.20;;;;;;5014522;28;20437;-82
2021/03/29 01:17:47;;;;;;;10.10;3.30;;;10.10;93.40;;;;;;5015156;28;20922;-82
2021/03/29 01:20:35;;;;;;;13.03;4.37;;;10.00;93.20;;;;;;5014404;28;20432;-82
2021/03/29 01:23:02;;;;;;;12.43;3.53;;;10.00;93.60;;;;;;4998301;28;20425;-82
2021/03/29 01:25:58;;;;;;;6.37;3.83;;;10.00;93.60;;;;;;4998460;28;20439;-82
2021/03/29 01:28:24;;;;;;;7.37;3.30;;;9.90;93.70;;;;;;4995733;28;20425;-82
2021/03/29 01:30:51;;;;;;;6.63;3.70;;;9.90;94.10;;;;;;5014415;28;20629;-82
2021/03/29 01:33:18;;;;;;;10.13;3.30;;;9.80;94.30;;;;;;4998195;28;20432;-82
2021/03/29 01:35:48;;;;;;;8.83;3.50;;;9.80;94.30;;;;;;5013254;28;20428;-82
2021/03/29 01:38:15;;;;;;;7.47;3.00;;;9.70;94.10;;;;;;5014180;28;20406;-82
2021/03/29 01:40:42;;;;;;;6.73;3.70;;;9.70;94.10;;;;;;4997646;28;20420;-82
2021/03/29 01:43:10;;;;;;;7.33;3.30;;;9.70;94.10;;;;;;5013122;28;20783;-82
2021/03/29 01:45:37;;;;;;;14.93;3.83;;;9.80;94.10;;;;;;5012851;28;20464;-82
2021/03/29 01:48:05;;;;;;;6.20;3.23;;;9.80;94.00;;;;;;5012936;28;20420;-82
2021/03/29 01:50:33;;;;;;;6.23;2.97;;;9.80;93.70;;;;;;5012423;28;20543;-82
2021/03/29 01:53:00;;;;;;;6.27;2.70;;;9.80;94.10;;;;;;5013016;28;20409;-82
2021/03/29 01:55:31;;;;;;;7.03;2.70;;;9.80;94.00;;;;;;5012199;28;20429;-82
2021/03/29 01:58:01;;;;;;;7.10;2.97;;;9.90;94.00;;;;;;4997611;28;20409;-82
2021/03/29 02:00:52;;;;;;;8.50;2.97;;;9.90;94.00;;;;;;5012624;28;20508;-82
2021/03/29 02:03:19;;;;;;;10.53;2.90;;;9.90;93.60;;;;;;5012161;28;20456;-82
2021/03/29 02:05:46;;;;;;;5.03;3.30;;;10.00;93.40;;;;;;5012479;28;20433;-82
2021/03/29 02:08:13;;;;;;;6.50;3.33;;;10.00;93.30;;;;;;5012909;28;20424;-82
2021/03/29 02:10:41;;;;;;;7.90;3.20;;;10.00;93.10;;;;;;4998104;28;20504;-82
2021/03/29 02:13:08;;;;;;;9.30;3.00;;;10.10;93.30;;;;;;5013854;28;20692;-82
2021/03/29 02:15:35;;;;;;;5.10;2.77;;;10.10;93.00;;;;;;4997472;28;20432;-82
2021/03/29 02:18:09;;;;;;;19.93;3.63;;;10.10;92.80;;;;;;5012269;28;20503;-82
2021/03/29 02:20:39;;;;;;;12.73;3.17;;;10.10;92.80;;;;;;5012129;28;20421;-82
2021/03/29 02:23:08;;;;;;;6.20;3.50;;;10.20;93.00;;;;;;5014755;28;20401;-82
2021/03/29 02:25:35;;;;;;;6.23;3.00;;;10.20;93.40;;;;;;5000928;28;20432;-82
2021/03/29 02:28:04;;;;;;;11.93;3.33;;;10.20;93.80;;;;;;5017036;28;20417;-82
2021/03/29 02:30:34;;;;;;;11.00;3.23;;;10.10;94.40;;;;;;5017343;28;20457;-82
2021/03/29 02:33:01;;;;;;;6.83;3.13;;;10.10;94.70;;;;;;5001163;28;20488;-82
2021/03/29 02:35:27;;;;;;;5.50;3.00;;;10.10;94.90;;;;;;5017173;28;20507;-82
2021/03/29 02:37:55;;;;;;;6.10;3.00;;;10.10;94.90;;;;;;5016629;28;20562;-82
2021/03/29 02:40:23;;;;;;;10.30;3.57;;;10.10;95.10;;;;;;5017700;28;20533;-82
2021/03/29 02:42:51;;;;;;;7.90;3.13;;;10.10;95.10;;;;;;5017307;28;20428;-82
2021/03/29 02:45:19;;;;;;;5.57;3.30;;;10.10;95.30;;;;;;5010027;28;20554;-82
2021/03/29 02:47:49;;;;;;;5.70;3.20;;;10.10;95.30;;;;;;5003161;28;20462;-82
2021/03/29 02:50:19;;;;;;;9.17;3.47;;;10.10;95.20;;;;;;5003238;28;20829;-82
2021/03/29 02:52:55;;;;;;;7.43;3.10;;;10.10;94.90;;;;;;5003868;28;20416;-82
2021/03/29 02:55:23;;;;;;;8.10;3.17;;;10.10;94.70;;;;;;5003527;28;20443;-82
2021/03/29 02:57:54;;;;;;;6.60;3.50;;;10.10;95.00;;;;;;5002192;28;20416;-82
2021/03/29 03:00:22;;;;;;;5.77;3.27;;;10.10;95.10;;;;;;5003585;28;20420;-82
2021/03/29 03:02:49;;;;;;;6.60;2.80;;;10.10;94.70;;;;;;5020531;28;20416;-82
2021/03/29 03:05:15;;;;;;;10.90;2.80;;;10.10;95.00;;;;;;5002710;28;20436;-82
2021/03/29 03:07:42;;;;;;;10.00;3.67;;;10.10;94.70;;;;;;5003503;28;21061;-82
2021/03/29 03:10:13;;;;;;;10.70;3.73;;;10.10;94.70;;;;;;5003620;28;20833;-83
2021/03/29 03:12:47;;;;;;;7.00;2.67;;;10.10;94.50;;;;;;5002710;28;20424;-82
2021/03/29 03:15:17;;;;;;;10.40;3.83;;;10.10;94.90;;;;;;5019535;28;20733;-82
2021/03/29 03:17:44;;;;;;;7.10;3.10;;;10.10;94.50;;;;;;5001898;28;20416;-82
2021/03/29 03:20:11;;;;;;;5.83;3.00;;;10.10;94.30;;;;;;5002446;28;20448;-82
2021/03/29 03:22:51;;;;;;;8.17;3.13;;;10.10;94.10;;;;;;5020249;28;20408;-82
2021/03/29 03:25:23;;;;;;;11.17;3.20;;;10.10;94.10;;;;;;5019750;28;20431;-82
2021/03/29 03:27:49;;;;;;;7.30;2.53;;;10.10;94.10;;;;;;5020196;28;20392;-82
2021/03/29 03:30:27;;;;;;;7.83;3.50;;;10.10;94.30;;;;;;5002531;28;20488;-82
2021/03/29 03:32:53;;;;;;;8.33;3.20;;;10.00;93.90;;;;;;5019263;28;20768;-82
2021/03/29 03:35:21;;;;;;;8.37;3.00;;;10.00;94.30;;;;;;5018774;28;20424;-82
2021/03/29 03:37:53;;;;;;;8.90;3.80;;;10.00;94.40;;;;;;5001903;28;20416;-82
2021/03/29 03:40:21;;;;;;;6.20;3.13;;;10.00;94.20;;;;;;5019440;28;20392;-82
2021/03/29 03:42:50;;;;;;;12.30;3.03;;;10.00;94.00;;;;;;5019362;28;20423;-82
2021/03/29 03:45:19;;;;;;;7.07;3.47;;;10.00;94.20;;;;;;5056293;23;20520;-84
2021/03/29 03:47:46;;;;;;;13.77;3.67;;;10.00;94.10;;;;;;5052963;28;20910;-85
2021/03/29 03:50:13;;;;;;;6.97;3.10;;;10.00;94.00;;;;;;5052701;28;20500;-84
2021/03/29 03:52:41;;;;;;;15.27;3.00;;;10.00;94.10;;;;;;5052684;28;20448;-84
2021/03/29 03:55:09;;;;;;;7.53;3.30;;;10.00;94.30;;;;;;5049249;28;20427;-85
2021/03/29 03:57:36;;;;;;;10.17;3.47;;;10.00;94.20;;;;;;5049643;28;20426;-84
2021/03/29 04:00:09;;;;;;;8.33;3.27;;;9.90;94.30;;;;;;5049677;28;20419;-85
2021/03/29 04:02:35;;;;;;;7.63;3.40;;;9.90;94.50;;;;;;5049749;28;20851;-84
2021/03/29 04:05:02;;;;;;;8.07;3.30;;;9.90;94.30;;;;;;5049502;28;20438;-84
2021/03/29 04:07:29;;;;;;;8.90;3.57;;;9.90;94.10;;;;;;5034043;28;20906;-84
2021/03/29 04:09:59;;;;;;;12.93;3.47;;;9.90;94.10;;;;;;5033901;28;20455;-84
2021/03/29 04:12:25;;;;;;;10.10;3.00;;;10.00;93.90;;;;;;5049750;28;20793;-84
2021/03/29 04:14:50;;;;;;;8.30;2.87;;;10.00;93.80;;;;;;5048969;28;20431;-84
2021/03/29 04:17:18;;;;;;;6.50;2.60;;;10.00;93.90;;;;;;5049242;28;20264;-84
2021/03/29 04:19:44;;;;;;;10.43;3.13;;;10.00;94.10;;;;;;5048991;28;20176;-84
2021/03/29 04:22:09;;;;;;;9.90;2.97;;;10.00;93.90;;;;;;5049231;28;20412;-84
2021/03/29 04:24:35;;;;;;;7.87;2.97;;;10.00;94.00;;;;;;5048658;28;20705;-86
2021/03/29 04:27:01;;;;;;;10.73;3.23;;;10.00;94.10;;;;;;5049071;28;20185;-84
2021/03/29 04:29:26;;;;;;;4.53;2.90;;;10.00;93.80;;;;;;5049132;28;20573;-84
2021/03/29 04:31:53;;;;;;;4.57;2.80;;;10.00;93.70;;;;;;5049483;28;20315;-81
2021/03/29 04:34:19;;;;;;;8.83;3.20;;;10.00;93.60;;;;;;5049149;28;20307;-84
2021/03/29 04:36:45;;;;;;;7.13;2.87;;;10.10;93.40;;;;;;5048643;28;20959;-84
2021/03/29 04:39:10;;;;;;;9.80;3.03;;;10.10;93.30;;;;;;5050697;28;20633;-83
2021/03/29 04:41:36;;;;;;;7.13;3.00;;;10.10;93.40;;;;;;5049264;28;20287;-84
2021/03/29 04:44:02;;;;;;;7.07;3.30;;;10.10;93.20;;;;;;5033684;28;20169;-84
2021/03/29 04:46:27;;;;;;;7.40;2.70;;;10.10;92.90;;;;;;5050966;28;20223;-84
2021/03/29 04:48:55;;;;;;;7.47;3.27;;;10.10;93.20;;;;;;5035502;28;20505;-84
2021/03/29 04:51:21;;;;;;;4.83;2.57;;;10.10;92.90;;;;;;5035373;28;20176;-84
2021/03/29 04:53:49;;;;;;;7.83;3.40;;;10.10;93.30;;;;;;5035246;28;20422;-84
2021/03/29 04:56:17;;;;;;;11.80;3.20;;;10.00;93.50;;;;;;5034928;28;20561;-84
2021/03/29 04:58:43;;;;;;;8.90;2.97;;;10.00;93.50;;;;;;5052499;28;20895;-84
2021/03/29 05:01:08;;;;;;;9.90;2.63;;;9.90;93.30;;;;;;5033475;28;20433;-82
2021/03/29 05:03:34;;;;;;;10.60;3.27;;;9.90;93.30;;;;;;5034194;28;20183;-84
2021/03/29 05:06:00;;;;;;;5.30;2.90;;;9.90;93.00;;;;;;5048048;28;20204;-85
2021/03/29 05:08:25;;;;;;;11.93;3.23;;;9.90;93.20;;;;;;5022602;28;20258;-84
2021/03/29 05:10:51;;;;;;;7.27;3.20;;;9.90;93.20;;;;;;5023757;28;20219;-85
2021/03/29 05:13:17;;;;;;;7.53;3.17;;;9.90;93.20;;;;;;5023429;28;20263;-85
2021/03/29 05:15:43;;;;;;;8.17;2.90;;;9.80;93.40;;;;;;5021854;28;20185;-85
2021/03/29 05:18:09;;;;;;;9.93;3.30;;;9.80;93.50;;;;;;5041804;28;20418;-84
2021/03/29 05:20:39;;;;;;;7.30;3.17;;;9.70;93.70;;;;;;5025584;28;20175;-85
2021/03/29 05:23:05;;;;;;;6.63;3.33;;;9.70;93.70;;;;;;5022988;28;20537;-85
2021/03/29 05:25:30;;;;;;;7.83;4.20;;;9.70;93.90;;;;;;5026019;28;20495;-85
2021/03/29 05:27:56;;;;;;;11.13;3.80;;;9.60;94.10;;;;;;5026748;28;20176;-84
2021/03/29 05:30:22;;;;;;;12.03;3.97;;;9.60;94.20;;;;;;5027290;28;20192;-84
2021/03/29 05:32:48;;;;;;;9.20;3.60;;;9.60;93.90;;;;;;5026560;28;20268;-85
2021/03/29 05:35:14;;;;;;;7.33;3.27;;;9.70;93.50;;;;;;5026846;23;20323;-71
2021/03/29 05:37:40;;;;;;;10.27;3.23;;;9.70;93.30;;;;;;5030854;28;20504;-71
2021/03/29 05:40:06;;;;;;;9.10;2.93;;;9.80;93.10;;;;;;5033532;28;20549;-71
2021/03/29 05:42:33;;;;;;;9.27;3.60;;;9.90;93.10;;;;;;5001847;28;20200;-71
2021/03/29 05:45:08;;;;;;;9.87;3.10;;;9.90;92.50;;;;;;5009598;28;20420;-71
2021/03/29 05:47:35;;;;;;;12.23;4.07;;;10.00;92.50;;;;;;4997440;28;20800;-71
2021/03/29 05:50:06;;;;;;;9.33;3.17;;;10.00;92.30;;;;;;4989787;28;20484;-71
2021/03/29 05:52:32;;;;;;;6.30;3.30;;;10.00;92.50;;;;;;4990350;28;20516;-71
2021/03/29 05:54:58;;;;;;;8.43;3.40;;;10.00;92.60;;;;;;4988730;28;20429;-71
2021/03/29 05:57:25;;;;;;;12.80;3.17;;;10.00;92.60;;;;;;4988789;28;20177;-71
2021/03/29 05:59:51;;;;;;;8.53;3.27;;;10.00;92.50;;;;;;4990638;28;21001;-71
2021/03/29 06:02:31;;;;;;;9.27;3.77;;;10.00;92.50;;;;;;4996231;28;20825;-71
2021/03/29 06:04:58;;;;;;;7.73;3.30;;;10.00;92.50;;;;;;5009146;28;20941;-70
2021/03/29 06:07:27;;;;;;;7.67;3.10;;;10.10;92.40;;;;;;5009785;28;20420;-72
2021/03/29 06:10:05;;;;;;;8.10;3.03;;;10.10;92.40;;;;;;5010787;28;21060;-72
2021/03/29 06:12:46;;;;;;;12.63;2.83;;;10.10;92.20;;;;;;5008768;28;20462;-73
2021/03/29 06:15:12;;;;;;;7.13;3.47;;;10.20;92.20;;;;;;5004258;28;20957;-73
2021/03/29 06:17:38;;;;;;;11.87;3.60;;;10.30;92.10;;;;;;4993038;28;20643;-72
2021/03/29 06:20:05;;;;;;;13.80;3.57;;;10.30;92.00;;;;;;4989337;28;20930;-72
2021/03/29 06:22:35;;;;;;;17.47;3.83;;;10.40;92.00;;;;;;4989225;28;20216;-73
2021/03/29 06:25:10;;;;;;;10.53;3.20;;;10.50;91.70;;;;;;4989114;28;20472;-72
2021/03/29 06:27:54;;;;;;;8.27;3.30;;;10.60;91.40;;;;;;4989608;28;20803;-73
2021/03/29 06:30:22;;;;;;;9.67;3.80;;;10.70;91.60;;;;;;4988523;28;20471;-72
2021/03/29 06:32:55;;;;;;;8.23;3.20;;;10.80;91.40;;;;;;4989047;28;20428;-72
2021/03/29 06:35:23;;;;;;;10.10;3.40;;;10.90;90.80;;;;;;4995922;28;20462;-73
2021/03/29 06:37:49;;;;;;;8.10;3.60;;;11.00;90.90;;;;;;4992555;28;20490;-72
2021/03/29 06:40:16;;;;;;;11.67;4.53;;;11.20;90.30;;;;;;5010274;28;20412;-72
2021/03/29 06:42:41;;;;;;;8.67;3.00;;;11.30;89.80;;;;;;4992666;28;20436;-72
2021/03/29 06:45:15;;;;;;;11.70;3.83;;;11.40;89.40;;;;;;5010507;28;20977;-72
2021/03/29 06:47:42;;;;;;;7.40;3.30;;;11.50;89.00;;;;;;5005646;28;20669;-72
2021/03/29 06:50:21;;;;;;;8.43;3.63;;;11.50;89.10;;;;;;5012387;28;20826;-72
2021/03/29 06:52:47;;;;;;;8.60;3.50;;;11.60;88.80;;;;;;5012911;28;20785;-73
2021/03/29 06:55:24;;;;;;;8.63;3.40;;;11.70;88.30;;;;;;5030003;28;20407;-72
2021/03/29 06:58:03;;;;;;;12.60;3.90;;;11.70;88.30;;;;;;5012365;28;20655;-72
2021/03/29 07:00:36;;;;;;;7.90;3.40;;;11.80;87.50;;;;;;5012263;28;20429;-72
2021/03/29 07:03:07;;;;;;;9.33;4.10;;;11.80;87.50;;;;;;5030163;28;20418;-73
2021/03/29 07:05:34;;;;;;;9.97;3.83;;;11.90;88.00;;;;;;5012454;28;20415;-72
2021/03/29 07:08:01;;;;;;;7.80;3.57;;;11.90;88.20;;;;;;5030771;28;20502;-73
2021/03/29 07:10:27;;;;;;;11.90;4.13;;;11.90;87.10;;;;;;5015136;28;20463;-72
2021/03/29 07:12:53;;;;;;;23.67;4.37;;;12.00;87.50;;;;;;5015838;28;20419;-72
2021/03/29 07:15:20;;;;;;;7.97;3.37;;;12.10;87.40;;;;;;5016031;28;20423;-72
2021/03/29 07:17:47;;;;;;;9.77;4.33;;;12.10;87.40;;;;;;5015263;28;20411;-73
2021/03/29 07:20:14;;;;;;;11.90;3.70;;;12.20;87.10;;;;;;5015473;28;20954;-72
2021/03/29 07:22:42;;;;;;;10.20;3.90;;;12.20;86.90;;;;;;5033599;28;20411;-73
2021/03/29 07:25:15;;;;;;;11.40;3.70;;;12.30;86.50;;;;;;5033412;28;20415;-72
2021/03/29 07:27:51;;;;;;;13.73;4.33;;;12.30;86.40;;;;;;5033524;28;20975;-72
2021/03/29 07:30:18;;;;;;;13.33;4.10;;;12.40;86.30;;;;;;5015096;28;20489;-72
2021/03/29 07:32:57;;;;;;;14.80;4.80;;;12.40;86.20;;;;;;5033258;28;20403;-71
2021/03/29 07:35:50;;;;;;;18.30;5.10;;;12.50;86.10;;;;;;5014779;28;20474;-71
2021/03/29 07:38:21;;;;;;;18.20;4.30;;;12.50;85.70;;;;;;5014982;28;20415;-71
2021/03/29 07:40:59;;;;;;;13.00;5.10;;;12.60;85.80;;;;;;5032911;28;20754;-72
2021/03/29 07:43:30;;;;;;;16.30;3.60;;;12.70;85.90;;;;;;5015044;28;20415;-72
2021/03/29 07:46:04;;;;;;;11.47;4.93;;;12.80;86.10;;;;;;5032823;28;20407;-72
2021/03/29 07:48:44;;;;;;;14.37;4.40;;;13.00;85.30;;;;;;4995637;28;20498;-72
2021/03/29 07:51:15;;;;;;;9.37;3.90;;;13.00;84.80;;;;;;5012811;28;21002;-72
2021/03/29 07:53:43;;;;;;;10.63;4.47;;;13.10;85.00;;;;;;5013073;28;20409;-72
2021/03/29 07:56:11;;;;;;;9.00;4.00;;;13.20;85.20;;;;;;5012966;28;20401;-73
2021/03/29 07:58:45;;;;;;;10.60;3.50;;;13.20;84.10;;;;;;5012689;28;20461;-72
2021/03/29 08:01:13;;;;;;;13.70;4.43;;;13.20;84.40;;;;;;4995055;28;20494;-73
2021/03/29 08:03:41;;;;;;;11.57;4.57;;;13.10;84.70;;;;;;4995585;28;20505;-73
2021/03/29 08:06:45;;;;;;;9.87;4.40;;;13.10;84.80;;;;;;4994942;28;20447;-74
2021/03/29 08:09:17;;;;;;;7.03;3.77;;;13.10;84.40;;;;;;4994894;28;20460;-73
2021/03/29 08:11:54;;;;;;;10.13;3.83;;;13.20;84.60;;;;;;4994845;28;20806;-73
2021/03/29 08:14:40;;;;;;;7.17;4.00;;;13.20;84.60;;;;;;4994897;28;21051;-73
2021/03/29 08:17:49;;;;;;;19.10;4.50;;;13.20;85.10;;;;;;4994703;28;20419;-73
2021/03/29 08:20:19;;;;;;;18.80;4.60;;;13.20;85.00;;;;;;4994442;28;20430;-73
2021/03/29 08:22:45;;;;;;;15.07;4.30;;;13.20;85.00;;;;;;5012283;28;20459;-73
2021/03/29 08:25:28;;;;;;;20.37;5.00;;;13.20;85.50;;;;;;5012876;28;20408;-73
2021/03/29 08:27:58;;;;;;;8.20;4.27;;;13.20;85.20;;;;;;4994688;28;20416;-73
2021/03/29 08:30:26;;;;;;;10.80;4.90;;;13.20;85.10;;;;;;5012403;28;20455;-73
2021/03/29 08:33:09;;;;;;;11.67;4.40;;;13.10;84.50;;;;;;5012474;28;20417;-73
2021/03/29 08:35:35;;;;;;;15.57;4.93;;;13.20;85.20;;;;;;5011948;28;20463;-73
2021/03/29 08:38:07;;;;;;;22.20;5.00;;;13.30;85.20;;;;;;4994393;28;20420;-73
2021/03/29 08:40:33;;;;;;;15.83;4.97;;;13.40;85.10;;;;;;4994309;28;20485;-73
2021/03/29 08:43:07;;;;;;;12.10;4.63;;;13.40;85.30;;;;;;4994736;28;20420;-73
2021/03/29 08:45:34;;;;;;;13.30;4.80;;;13.50;85.40;;;;;;4994177;28;20451;-73
2021/03/29 08:48:02;;;;;;;10.90;4.90;;;13.60;85.30;;;;;;5009958;28;20473;-73
2021/03/29 08:50:35;;;;;;;15.73;5.17;;;13.60;85.00;;;;;;5031762;28;20967;-73
2021/03/29 08:53:03;;;;;;;16.80;5.17;;;13.70;85.00;;;;;;5030055;28;20422;-73
2021/03/29 08:55:32;;;;;;;11.70;5.27;;;13.70;85.80;;;;;;5013675;28;20494;-72
2021/03/29 08:57:58;;;;;;;12.03;4.77;;;13.80;85.50;;;;;;5013687;28;20411;-72
2021/03/29 09:00:30;;;;;;;15.00;5.10;;;13.80;85.00;;;;;;5031454;28;20415;-73
2021/03/29 09:02:56;;;;;;;14.60;5.37;;;13.80;85.30;;;;;;5031290;28;20457;-73
2021/03/29 09:05:24;;;;;;;17.03;5.30;;;13.90;84.10;;;;;;5014003;28;20419;-73
2021/03/29 09:07:53;;;;;;;17.57;5.30;;;14.00;84.30;;;;;;5031416;28;20173;-73
2021/03/29 09:10:37;;;;;;;19.13;5.37;;;14.10;84.50;;;;;;5030018;28;20462;-73
2021/03/29 09:13:08;;;;;;;13.03;5.00;;;14.20;84.00;;;;;;5013730;28;20444;-72
2021/03/29 09:15:36;;;;;;;15.07;5.67;;;14.20;83.00;;;;;;5031052;28;20404;-73
2021/03/29 09:18:08;;;;;;;16.57;6.10;;;14.30;83.60;;;;;;5013347;28;20423;-73
2021/03/29 09:20:38;;;;;;;17.70;5.53;;;14.50;82.90;;;;;;5031008;28;20439;-73
2021/03/29 09:23:05;;;;;;;16.30;4.93;;;14.60;81.40;;;;;;5031335;28;20603;-72
2021/03/29 09:25:39;;;;;;;15.40;6.17;;;14.70;81.20;;;;;;5013078;28;20939;-73
2021/03/29 09:28:33;;;;;;;17.47;5.80;;;15.00;80.60;;;;;;5030671;28;20407;-75
2021/03/29 09:30:59;;;;;;;17.90;5.50;;;15.20;80.10;;;;;;5030745;28;20485;-74
2021/03/29 09:33:25;;;;;;;15.07;6.30;;;15.40;79.40;;;;;;5030862;28;20911;-73
2021/03/29 09:35:53;;;;;;;12.00;4.43;;;15.50;79.00;;;;;;5029269;28;20231;-74
2021/03/29 09:38:38;;;;;;;13.57;5.13;;;15.70;79.20;;;;;;5030981;28;20410;-73
2021/03/29 09:41:21;;;;;;;14.27;5.87;;;15.70;78.30;;;;;;5012930;28;20431;-74
2021/03/29 09:43:48;;;;;;;10.83;5.53;;;15.60;79.20;;;;;;5013125;28;20478;-73
2021/03/29 09:46:15;;;;;;;13.20;4.73;;;15.80;79.10;;;;;;5027500;23;20438;-69
2021/03/29 09:48:41;;;;;;;17.73;6.27;;;15.90;78.60;;;;;;5029488;28;20419;-67
2021/03/29 09:51:21;;;;;;;17.20;5.03;;;15.90;78.60;;;;;;5020643;28;20899;-67
2021/03/29 09:53:47;;;;;;;14.53;4.87;;;16.10;79.00;;;;;;5032338;28;20176;-67
2021/03/29 09:56:13;;;;;;;12.60;4.73;;;16.20;78.50;;;;;;5032392;28;20418;-67
2021/03/29 09:58:47;;;;;;;20.43;5.47;;;16.10;78.10;;;;;;5050923;28;20814;-67
2021/03/29 10:01:19;;;;;;;14.23;5.03;;;16.30;78.60;;;;;;5032157;28;20256;-67
2021/03/29 10:03:58;;;;;;;12.70;4.60;;;16.40;77.70;;;;;;5050296;28;20445;-69
2021/03/29 10:06:26;;;;;;;20.33;4.80;;;16.60;77.50;;;;;;5050380;28;20834;-67
2021/03/29 10:09:01;;;;;;;16.13;4.77;;;16.60;77.40;;;;;;5050352;28;20927;-67
2021/03/29 10:11:41;;;;;;;13.50;4.67;;;16.50;77.40;;;;;;5050347;28;20564;-67
2021/03/29 10:14:07;;;;;;;11.97;4.90;;;16.50;78.10;;;;;;5032558;28;20497;-68
2021/03/29 10:16:33;;;;;;;14.20;4.37;;;16.60;77.50;;;;;;5050452;28;20485;-67
2021/03/29 10:19:02;;;;;;;14.67;4.70;;;17.00;78.00;;;;;;5050037;28;20252;-68
2021/03/29 10:21:27;;;;;;;17.63;4.30;;;16.90;75.30;;;;;;5032358;28;20442;-67
2021/03/29 10:24:15;;;;;;;12.00;4.50;;;16.70;75.80;;;;;;5050155;28;20410;-67
2021/03/29 10:27:01;;;;;;;9.97;4.73;;;16.90;76.60;;;;;;5032121;28;20179;-67
2021/03/29 10:29:41;;;;;;;13.80;4.83;;;17.20;75.40;;;;;;5050069;28;20687;-67
2021/03/29 10:32:13;;;;;;;16.40;5.00;;;17.40;76.00;;;;;;5032101;28;20441;-68
2021/03/29 10:34:40;;;;;;;10.03;4.57;;;17.50;74.90;;;;;;5049762;28;20835;-68
2021/03/29 10:37:18;;;;;;;13.20;4.70;;;17.60;74.20;;;;;;5050265;28;20777;-67
2021/03/29 10:39:44;;;;;;;13.67;4.97;;;17.70;74.60;;;;;;5050155;28;20406;-68
2021/03/29 10:42:12;;;;;;;11.57;4.40;;;17.90;75.10;;;;;;5031898;28;20788;-68
2021/03/29 10:44:37;;;;;;;11.57;4.23;;;17.80;73.30;;;;;;5053442;28;20225;-68
2021/03/29 10:47:03;;;;;;;15.50;4.50;;;17.80;74.10;;;;;;5045563;28;20530;-69
2021/03/29 10:49:29;;;;;;;9.73;4.23;;;17.90;73.90;;;;;;5015879;28;20300;-67
2021/03/29 10:51:55;;;;;;;12.97;4.80;;;17.50;72.60;;;;;;5033853;28;20528;-68
2021/03/29 10:54:20;;;;;;;9.10;4.03;;;17.50;74.10;;;;;;5016089;28;20184;-67
2021/03/29 10:56:46;;;;;;;14.67;3.83;;;17.50;73.20;;;;;;5033919;28;20687;-68
2021/03/29 10:59:12;;;;;;;11.90;4.20;;;17.40;72.90;;;;;;5033574;28;20179;-68
2021/03/29 11:01:38;;;;;;;10.17;3.87;;;17.20;73.10;;;;;;5015550;28;20582;-67
2021/03/29 11:04:03;;;;;;;14.37;4.20;;;17.20;73.90;;;;;;5015697;28;20415;-68
2021/03/29 11:06:29;;;;;;;13.70;3.80;;;17.40;73.70;;;;;;5033199;28;20177;-67
2021/03/29 11:08:55;;;;;;;12.13;4.00;;;17.60;73.90;;;;;;5015274;28;20227;-68
2021/03/29 11:11:21;;;;;;;14.27;3.97;;;17.80;72.00;;;;;;5032926;28;20196;-68
2021/03/29 11:13:46;;;;;;;14.23;4.40;;;17.90;72.10;;;;;;5015826;28;20180;-68
2021/03/29 11:16:13;;;;;;;8.20;3.63;;;18.20;73.00;;;;;;5015361;28;20263;-68
2021/03/29 11:18:39;;;;;;;7.70;3.93;;;18.50;72.00;;;;;;5015833;28;20176;-68
2021/03/29 11:21:05;;;;;;;10.87;4.10;;;18.60;71.40;;;;;;5015401;28;20446;-69
2021/03/29 11:23:31;;;;;;;12.73;4.37;;;18.40;71.30;;;;;;5015038;28;20180;-69
2021/03/29 11:25:57;;;;;;;17.87;4.27;;;18.50;70.60;;;;;;5015406;28;20799;-69
2021/03/29 11:28:23;;;;;;;11.57;3.77;;;18.70;70.50;;;;;;5015255;28;20176;-69
2021/03/29 11:30:49;;;;;;;9.17;3.57;;;18.60;70.20;;;;;;5033229;28;20280;-69
2021/03/29 11:33:15;;;;;;;11.33;4.27;;;18.50;70.50;;;;;;5015656;28;20632;-69
2021/03/29 11:35:40;;;;;;;10.00;4.00;;;18.60;70.70;;;;;;5015774;28;20415;-68
2021/03/29 11:38:06;;;;;;;9.00;3.90;;;18.60;71.00;;;;;;5033169;28;20255;-68
2021/03/29 11:40:32;;;;;;;9.50;3.87;;;18.60;69.90;;;;;;5015313;28;20172;-69
2021/03/29 11:42:57;;;;;;;9.57;3.40;;;18.40;69.80;;;;;;5015731;28;20893;-69
2021/03/29 11:45:23;;;;;;;12.60;4.30;;;18.10;69.30;;;;;;5032992;28;20641;-69
2021/03/29 11:47:49;;;;;;;10.43;3.70;;;18.40;70.20;;;;;;5032935;28;20224;-69
2021/03/29 11:50:15;;;;;;;10.43;4.00;;;18.60;70.10;;;;;;5032959;28;20455;-70
2021/03/29 11:52:44;;;;;;;9.00;3.80;;;19.00;70.20;;;;;;5033435;28;20169;-69
2021/03/29 11:55:11;;;;;;;13.90;4.10;;;18.90;69.00;;;;;;5013823;28;20502;-69
2021/03/29 11:57:39;;;;;;;12.77;4.13;;;19.30;69.90;;;;;;5033303;28;20407;-69
2021/03/29 12:00:10;;;;;;;12.33;4.70;;;19.50;68.50;;;;;;5033073;28;20411;-69
2021/03/29 12:02:48;;;;;;;9.87;4.17;;;19.70;69.30;;;;;;5014862;28;20439;-69
2021/03/29 12:05:24;;;;;;;14.63;3.67;;;20.20;68.80;;;;;;5032684;28;20441;-69
2021/03/29 12:13:06;;;;;;;12.13;3.37;;;19.90;67.30;;;;;;5032783;28;20841;-69
2021/03/29 12:15:33;;;;;;;9.30;3.30;;;20.00;68.20;;;;;;5015202;28;20826;-69
2021/03/29 12:17:59;;;;;;;8.97;4.03;;;19.80;67.90;;;;;;5015066;28;20411;-69
2021/03/29 12:20:25;;;;;;;10.27;3.83;;;19.80;68.10;;;;;;5014263;28;20422;-69
2021/03/29 12:22:52;;;;;;;13.93;4.27;;;20.00;68.40;;;;;;5032697;28;20776;-71
2021/03/29 12:25:22;;;;;;;11.70;4.10;;;20.10;68.70;;;;;;5032616;28;20184;-69
2021/03/29 12:27:50;;;;;;;11.10;4.07;;;20.50;68.40;;;;;;5014713;28;20423;-69
2021/03/29 12:30:18;;;;;;;12.60;4.50;;;20.60;67.70;;;;;;5014561;28;20565;-69
2021/03/29 12:32:46;;;;;;;14.57;3.90;;;20.70;68.00;;;;;;5015170;28;20416;-69
2021/03/29 12:35:17;;;;;;;17.30;4.00;;;20.60;67.80;;;;;;5014301;28;20418;-69
2021/03/29 12:37:45;;;;;;;16.10;5.20;;;20.50;68.50;;;;;;5032110;28;20474;-69
2021/03/29 12:40:14;;;;;;;9.90;4.07;;;20.40;68.70;;;;;;5014445;28;20514;-71
2021/03/29 12:43:02;;;;;;;12.97;4.20;;;20.40;68.30;;;;;;5032052;28;20423;-70
2021/03/29 12:45:31;;;;;;;6.87;4.00;;;20.30;68.80;;;;;;5015362;28;20990;-69
2021/03/29 12:48:02;;;;;;;11.07;4.47;;;20.00;68.40;;;;;;5031440;28;20482;-70
2021/03/29 12:50:29;;;;;;;8.23;3.90;;;20.00;68.30;;;;;;5033647;28;20471;-69
2021/03/29 12:52:55;;;;;;;12.57;4.53;;;20.10;68.20;;;;;;5044915;28;20427;-70
2021/03/29 12:55:24;;;;;;;10.10;4.50;;;20.10;68.00;;;;;;5014952;28;20580;-69
2021/03/29 12:57:52;;;;;;;6.77;3.40;;;20.30;68.10;;;;;;5013903;28;20180;-70
2021/03/29 13:00:21;;;;;;;7.90;3.83;;;20.50;68.20;;;;;;5031169;28;20418;-70